createdAt,value
2022-10-29T00:02:30.588Z,27.17
2022-10-29T00:04:57.898Z,26.85
2022-10-29T00:07:27.340Z,26.38
2022-10-29T00:09:57.537Z,27.23
2022-10-29T00:12:31.546Z,27.20
2022-10-29T00:15:08.648Z,28.00
2022-10-29T00:20:10.506Z,27.65
2022-10-29T00:22:38.216Z,28.77
2022-10-29T00:25:08.744Z,32.13
2022-10-29T00:27:39.584Z,28.25
2022-10-29T00:30:09.931Z,26.73
2022-10-29T00:32:41.566Z,29.10
2022-10-29T00:35:10.414Z,28.50
2022-10-29T00:37:40.937Z,29.23
2022-10-29T00:40:08.904Z,27.73
2022-10-29T00:42:39.835Z,30.17
2022-10-29T00:45:15.107Z,29.48
2022-10-29T00:47:44.378Z,27.00
2022-10-29T00:50:15.532Z,28.48
2022-10-29T00:52:46.920Z,28.08
2022-10-29T00:55:18.420Z,28.05
2022-10-29T00:57:52.524Z,29.13
2022-10-29T01:00:22.207Z,28.02
2022-10-29T01:02:50.201Z,26.42
2022-10-29T01:05:27.532Z,27.30
2022-10-29T01:08:00.414Z,26.85
2022-10-29T01:10:56.538Z,28.58
2022-10-29T01:13:54.983Z,28.35
2022-10-29T01:16:58.120Z,28.70
2022-10-29T01:20:08.613Z,28.45
2022-10-29T01:23:04.736Z,29.25
2022-10-29T01:26:00.101Z,29.17
2022-10-29T01:29:07.844Z,29.17
2022-10-29T01:32:01.383Z,28.23
2022-10-29T01:35:06.812Z,28.50
2022-10-29T01:38:23.042Z,25.90
2022-10-29T01:41:18.154Z,28.40
2022-10-29T01:46:56.910Z,25.60
2022-10-29T01:49:42.084Z,26.05
2022-10-29T01:52:18.594Z,25.77
2022-10-29T01:54:49.730Z,24.35
2022-10-29T01:57:37.230Z,25.13
2022-10-29T02:00:17.665Z,25.00
2022-10-29T02:03:11.322Z,25.77
2022-10-29T02:06:12.625Z,23.95
2022-10-29T02:09:20.867Z,24.98
2022-10-29T02:12:24.959Z,25.52
2022-10-29T02:15:32.724Z,24.27
2022-10-29T02:18:06.459Z,24.02
2022-10-29T02:20:36.805Z,23.83
2022-10-29T02:23:04.154Z,24.05
2022-10-29T02:25:36.199Z,21.63
2022-10-29T02:28:08.381Z,23.83
2022-10-29T02:30:40.030Z,23.98
2022-10-29T02:33:09.520Z,24.00
2022-10-29T02:35:37.163Z,24.98
2022-10-29T02:38:05.158Z,26.63
2022-10-29T02:40:36.699Z,25.45
2022-10-29T02:43:05.297Z,26.33
2022-10-29T02:45:35.779Z,28.60
2022-10-29T02:48:07.092Z,27.70
2022-10-29T02:50:37.576Z,26.55
2022-10-29T02:53:07.625Z,27.67
2022-10-29T02:55:38.609Z,28.45
2022-10-29T02:58:08.815Z,28.83
2022-10-29T03:00:37.750Z,28.52
2022-10-29T03:03:05.221Z,29.17
2022-10-29T03:05:37.998Z,30.60
2022-10-29T03:08:07.511Z,30.08
2022-10-29T03:10:37.749Z,32.35
2022-10-29T03:13:08.030Z,31.77
2022-10-29T03:15:38.715Z,31.58
2022-10-29T03:18:06.796Z,34.70
2022-10-29T03:20:38.979Z,38.20
2022-10-29T03:23:06.360Z,35.88
2022-10-29T03:25:34.710Z,35.03
2022-10-29T03:28:07.331Z,36.67
2022-10-29T03:30:37.231Z,35.38
2022-10-29T03:33:06.873Z,35.75
2022-10-29T03:35:37.550Z,33.85
2022-10-29T03:38:07.459Z,36.53
2022-10-29T03:40:34.695Z,30.77
2022-10-29T03:43:05.247Z,31.00
2022-10-29T03:45:34.693Z,30.35
2022-10-29T03:48:07.639Z,29.95
2022-10-29T03:50:39.766Z,26.67
2022-10-29T03:53:10.909Z,27.33
2022-10-29T03:55:42.135Z,27.08
2022-10-29T03:58:09.560Z,24.52
2022-10-29T04:00:39.841Z,22.20
2022-10-29T04:03:07.073Z,24.85
2022-10-29T04:05:36.786Z,24.08
2022-10-29T04:08:06.683Z,23.65
2022-10-29T04:10:42.286Z,22.90
2022-10-29T04:13:10.499Z,24.08
2022-10-29T04:15:38.258Z,23.48
2022-10-29T04:18:06.442Z,23.88
2022-10-29T04:20:45.622Z,24.38
2022-10-29T04:29:02.726Z,29.70
2022-10-29T04:31:31.698Z,29.02
2022-10-29T04:34:01.601Z,30.33
2022-10-29T04:36:30.438Z,27.95
2022-10-29T04:38:58.517Z,27.27
2022-10-29T04:41:28.638Z,27.92
2022-10-29T04:43:58.850Z,28.00
2022-10-29T04:46:26.362Z,28.02
2022-10-29T04:49:01.911Z,28.85
2022-10-29T04:51:32.030Z,25.70
2022-10-29T04:54:00.539Z,27.52
2022-10-29T04:56:33.324Z,26.63
2022-10-29T04:59:04.887Z,25.45
2022-10-29T05:01:32.512Z,25.80
2022-10-29T05:04:01.417Z,24.60
2022-10-29T05:06:29.637Z,25.77
2022-10-29T05:09:01.257Z,23.88
2022-10-29T05:11:32.222Z,23.98
2022-10-29T05:14:02.304Z,25.42
2022-10-29T05:16:30.806Z,25.75
2022-10-29T05:19:01.905Z,25.63
2022-10-29T05:21:34.374Z,22.40
2022-10-29T05:24:02.672Z,25.35
2022-10-29T05:26:32.568Z,26.02
2022-10-29T05:29:01.525Z,24.65
2022-10-29T05:31:31.764Z,25.10
2022-10-29T05:34:01.623Z,24.33
2022-10-29T05:36:30.368Z,23.52
2022-10-29T05:38:58.547Z,25.45
2022-10-29T05:41:28.918Z,24.75
2022-10-29T05:43:56.388Z,24.38
2022-10-29T05:46:25.559Z,23.70
2022-10-29T05:48:57.519Z,23.25
2022-10-29T05:51:25.352Z,22.20
2022-10-29T05:53:53.445Z,22.63
2022-10-29T05:56:21.345Z,23.10
2022-10-29T05:58:51.953Z,23.38
2022-10-29T06:01:22.029Z,23.58
2022-10-29T06:03:49.468Z,23.92
2022-10-29T06:06:20.247Z,22.52
2022-10-29T06:08:48.358Z,22.63
2022-10-29T06:11:17.408Z,24.88
2022-10-29T06:13:44.766Z,23.30
2022-10-29T06:16:12.435Z,22.83
2022-10-29T06:18:41.601Z,23.15
2022-10-29T06:21:10.005Z,22.55
2022-10-29T06:23:37.510Z,22.95
2022-10-29T06:26:08.187Z,23.42
2022-10-29T06:28:37.583Z,22.85
2022-10-29T06:31:04.968Z,21.38
2022-10-29T06:33:34.930Z,21.48
2022-10-29T06:36:02.408Z,24.10
2022-10-29T06:38:30.551Z,22.10
2022-10-29T06:41:01.727Z,22.15
2022-10-29T06:43:29.841Z,22.58
2022-10-29T06:45:57.475Z,23.45
2022-10-29T06:48:25.503Z,22.10
2022-10-29T06:50:58.020Z,23.67
2022-10-29T06:53:28.443Z,21.98
2022-10-29T06:55:58.902Z,23.42
2022-10-29T06:58:27.825Z,21.52
2022-10-29T07:03:31.085Z,23.23
2022-10-29T07:06:04.203Z,23.63
2022-10-29T07:08:33.311Z,25.67
2022-10-29T07:11:03.187Z,22.77
2022-10-29T07:13:34.054Z,22.33
2022-10-29T07:16:05.718Z,22.65
2022-10-29T07:18:35.727Z,22.73
2022-10-29T07:21:04.944Z,23.95
2022-10-29T07:23:36.546Z,25.98
2022-10-29T07:26:03.700Z,25.73
2022-10-29T07:28:31.482Z,28.40
2022-10-29T07:31:01.263Z,28.63
2022-10-29T07:33:31.002Z,31.35
2022-10-29T07:36:01.642Z,29.83
2022-10-29T07:38:34.281Z,28.20
2022-10-29T07:41:04.030Z,26.77
2022-10-29T07:43:31.492Z,30.42
2022-10-29T07:46:02.068Z,29.15
2022-10-29T07:48:30.732Z,27.95
2022-10-29T07:51:04.898Z,30.55
2022-10-29T07:53:55.678Z,30.92
2022-10-29T07:56:26.510Z,27.80
2022-10-29T07:58:56.783Z,25.15
2022-10-29T08:01:25.926Z,28.23
2022-10-29T08:03:55.202Z,24.20
2022-10-29T08:06:24.639Z,30.45
2022-10-29T08:08:52.530Z,23.00
2022-10-29T08:11:20.547Z,22.67
2022-10-29T08:13:51.704Z,23.73
2022-10-29T08:16:19.811Z,22.02
2022-10-29T08:18:48.556Z,24.20
2022-10-29T08:21:20.991Z,22.13
2022-10-29T08:23:51.812Z,23.00
2022-10-29T08:26:22.551Z,22.05
2022-10-29T08:28:53.417Z,23.60
2022-10-29T08:31:22.805Z,24.48
2022-10-29T08:33:55.476Z,25.38
2022-10-29T08:36:24.796Z,24.77
2022-10-29T08:38:53.230Z,23.65
2022-10-29T08:41:53.310Z,23.92
2022-10-29T08:44:54.489Z,21.80
2022-10-29T08:47:24.258Z,25.20
2022-10-29T08:50:24.620Z,22.45
2022-10-29T08:53:19.490Z,21.60
2022-10-29T08:55:46.954Z,25.02
2022-10-29T08:58:39.637Z,27.33
2022-10-29T09:01:24.364Z,27.40
2022-10-29T09:06:51.710Z,28.08
2022-10-29T09:09:46.917Z,28.77
2022-10-29T09:15:36.546Z,28.67
2022-10-29T09:18:21.126Z,31.17
2022-10-29T09:21:18.249Z,27.58
2022-10-29T09:24:24.167Z,27.95
2022-10-29T09:27:17.924Z,26.60
2022-10-29T09:29:57.539Z,28.83
2022-10-29T09:32:45.430Z,30.48
2022-10-29T09:35:22.454Z,28.42
2022-10-29T09:38:00.997Z,29.92
2022-10-29T09:40:39.484Z,29.40
2022-10-29T09:43:48.734Z,27.50
2022-10-29T09:46:40.585Z,27.10
2022-10-29T09:49:14.217Z,28.45
2022-10-29T09:52:02.461Z,27.53
2022-10-29T09:54:31.792Z,25.70
2022-10-29T09:57:05.887Z,27.48
2022-10-29T09:59:56.011Z,25.58
2022-10-29T10:02:45.014Z,28.70
2022-10-29T10:05:14.668Z,25.55
2022-10-29T10:07:45.332Z,27.83
2022-10-29T10:10:26.495Z,27.58
2022-10-29T10:13:03.324Z,29.45
2022-10-29T10:15:44.167Z,28.02
2022-10-29T10:18:28.985Z,29.70
2022-10-29T10:21:26.398Z,28.60
2022-10-29T10:23:56.215Z,27.00
2022-10-29T10:26:43.437Z,28.67
2022-10-29T10:29:31.258Z,30.25
2022-10-29T10:31:58.622Z,29.60
2022-10-29T10:34:41.152Z,29.70
2022-10-29T10:37:19.161Z,29.38
2022-10-29T10:40:05.596Z,30.88
2022-10-29T10:42:39.623Z,29.98
2022-10-29T10:45:24.144Z,30.65
2022-10-29T10:47:58.283Z,28.65
2022-10-29T10:50:40.862Z,30.27
2022-10-29T10:53:25.353Z,29.63
2022-10-29T10:55:58.026Z,29.57
2022-10-29T10:58:42.785Z,27.77
2022-10-29T11:01:51.440Z,29.65
2022-10-29T11:04:39.694Z,29.70
2022-10-29T11:07:21.969Z,33.80
2022-10-29T11:09:53.298Z,31.80
2022-10-29T11:12:39.359Z,33.92
2022-10-29T11:15:39.413Z,32.65
2022-10-29T11:19:14.906Z,35.00
2022-10-29T11:22:16.426Z,32.95
2022-10-29T11:25:06.454Z,32.55
2022-10-29T11:28:27.415Z,35.03
2022-10-29T11:31:02.894Z,34.75
2022-10-29T11:36:33.167Z,38.15
2022-10-29T11:39:18.106Z,39.38
2022-10-29T11:42:04.097Z,39.65
2022-10-29T11:44:43.733Z,39.50
2022-10-29T11:47:33.584Z,40.60
2022-10-29T11:50:41.591Z,37.38
2022-10-29T11:53:51.843Z,34.25
2022-10-29T11:56:33.931Z,34.83
2022-10-29T11:59:12.580Z,34.53
2022-10-29T12:02:03.637Z,34.45
2022-10-29T12:04:57.745Z,33.88
2022-10-29T12:07:56.294Z,37.10
2022-10-29T12:11:11.702Z,33.58
2022-10-29T12:14:17.090Z,34.92
2022-10-29T12:17:27.891Z,34.67
2022-10-29T12:20:14.498Z,32.90
2022-10-29T12:23:12.022Z,33.47
2022-10-29T12:26:28.180Z,39.13
2022-10-29T12:29:42.423Z,46.17
2022-10-29T12:32:18.055Z,36.80
2022-10-29T12:35:22.322Z,36.63
2022-10-29T12:38:17.258Z,34.72
2022-10-29T12:40:52.490Z,31.48
2022-10-29T12:43:44.632Z,33.20
2022-10-29T12:46:39.163Z,28.52
2022-10-29T12:49:18.061Z,27.42
2022-10-29T12:52:18.258Z,24.08
2022-10-29T12:54:52.662Z,19.83
2022-10-29T12:57:35.114Z,19.02
2022-10-29T13:00:24.731Z,18.42
2022-10-29T13:02:58.093Z,14.15
2022-10-29T13:05:28.372Z,17.05
2022-10-29T13:08:10.041Z,13.95
2022-10-29T13:10:59.443Z,17.45
2022-10-29T13:13:38.938Z,16.27
2022-10-29T13:16:19.296Z,13.98
2022-10-29T13:19:09.655Z,13.70
2022-10-29T13:22:27.922Z,8.88
2022-10-29T13:25:35.700Z,11.10
2022-10-29T13:28:17.392Z,11.75
2022-10-29T13:30:54.502Z,10.68
2022-10-29T13:33:33.271Z,10.63
2022-10-29T13:36:03.634Z,9.52
2022-10-29T13:39:08.290Z,9.48
2022-10-29T13:41:47.299Z,7.50
2022-10-29T13:44:28.501Z,8.20
2022-10-29T13:47:07.148Z,10.50
2022-10-29T13:49:51.150Z,7.32
2022-10-29T13:52:23.977Z,7.70
2022-10-29T13:55:22.179Z,9.82
2022-10-29T13:58:15.171Z,7.50
2022-10-29T14:00:48.849Z,10.45
2022-10-29T14:05:58.035Z,9.82
2022-10-29T14:08:46.638Z,10.90
2022-10-29T14:11:18.655Z,12.30
2022-10-29T14:13:52.440Z,10.73
2022-10-29T14:16:32.935Z,11.02
2022-10-29T14:19:27.843Z,12.10
2022-10-29T14:21:59.703Z,11.43
2022-10-29T14:24:40.171Z,14.25
2022-10-29T14:27:10.891Z,14.70
2022-10-29T14:29:41.097Z,13.07
2022-10-29T14:32:18.416Z,17.73
2022-10-29T14:34:49.761Z,16.75
2022-10-29T14:37:31.156Z,15.25
2022-10-29T14:40:05.276Z,14.48
2022-10-29T14:42:43.482Z,15.15
2022-10-29T14:45:41.220Z,15.40
2022-10-29T14:48:17.112Z,14.25
2022-10-29T14:50:56.928Z,12.70
2022-10-29T14:53:41.268Z,14.80
2022-10-29T14:56:17.035Z,14.07
2022-10-29T14:58:49.642Z,15.45
2022-10-29T15:01:20.546Z,15.80
2022-10-29T15:03:59.065Z,16.25
2022-10-29T15:06:30.686Z,15.95
2022-10-29T15:09:05.960Z,16.55
2022-10-29T15:11:58.848Z,15.65
2022-10-29T15:14:39.040Z,16.13
2022-10-29T15:17:20.514Z,16.65
2022-10-29T15:19:56.393Z,16.48
2022-10-29T15:22:43.239Z,16.17
2022-10-29T15:25:20.163Z,19.05
2022-10-29T15:27:51.620Z,18.33
2022-10-29T15:30:22.823Z,18.85
2022-10-29T15:32:59.927Z,18.15
2022-10-29T15:35:29.617Z,19.00
2022-10-29T15:38:00.482Z,22.35
2022-10-29T15:40:31.672Z,32.53
2022-10-29T15:43:32.933Z,28.45
2022-10-29T15:46:01.247Z,26.17
2022-10-29T15:48:43.446Z,24.67
2022-10-29T15:51:12.486Z,21.60
2022-10-29T15:53:41.779Z,23.83
2022-10-29T15:56:13.402Z,21.27
2022-10-29T15:58:41.375Z,19.02
2022-10-29T16:01:09.200Z,22.85
2022-10-29T16:03:41.038Z,25.38
2022-10-29T16:06:12.684Z,22.30
2022-10-29T16:08:51.761Z,21.13
2022-10-29T16:11:20.922Z,23.85
2022-10-29T16:13:54.612Z,25.42
2022-10-29T16:16:27.212Z,29.10
2022-10-29T16:18:55.781Z,28.40
2022-10-29T16:21:25.225Z,25.27
2022-10-29T16:23:54.361Z,26.45
2022-10-29T16:26:29.014Z,28.08
2022-10-29T16:34:32.357Z,24.08
2022-10-29T16:37:00.149Z,22.65
2022-10-29T16:39:30.658Z,22.42
2022-10-29T16:41:58.914Z,23.15
2022-10-29T16:44:27.613Z,24.17
2022-10-29T16:46:57.314Z,24.15
2022-10-29T16:49:28.243Z,24.30
2022-10-29T16:51:56.380Z,26.08
2022-10-29T16:54:24.663Z,36.20
2022-10-29T16:56:59.622Z,30.65
2022-10-29T16:59:29.661Z,26.02
2022-10-29T17:01:59.079Z,23.63
2022-10-29T17:04:27.709Z,24.55
2022-10-29T17:06:57.206Z,39.92
2022-10-29T17:09:26.360Z,35.08
2022-10-29T17:11:56.541Z,28.08
2022-10-29T17:14:25.070Z,27.33
2022-10-29T17:16:55.255Z,24.20
2022-10-29T17:19:24.017Z,27.77
2022-10-29T17:21:52.301Z,26.10
2022-10-29T17:24:26.126Z,27.27
2022-10-29T17:27:00.010Z,28.08
2022-10-29T17:29:35.964Z,27.98
2022-10-29T17:32:10.745Z,26.67
2022-10-29T17:37:09.669Z,27.85
2022-10-29T17:39:37.342Z,29.40
2022-10-29T17:42:07.824Z,30.23
2022-10-29T17:44:36.293Z,26.60
2022-10-29T17:47:04.258Z,29.75
2022-10-29T17:49:34.794Z,28.63
2022-10-29T17:52:04.609Z,29.60
2022-10-29T17:54:35.358Z,29.58
2022-10-29T17:57:04.320Z,31.35
2022-10-29T17:59:32.472Z,30.27
2022-10-29T18:02:00.360Z,32.05
2022-10-29T18:04:31.137Z,43.33
2022-10-29T18:06:59.254Z,36.47
2022-10-29T18:09:27.346Z,33.30
2022-10-29T18:11:56.234Z,35.35
2022-10-29T18:14:27.529Z,35.88
2022-10-29T18:16:57.163Z,32.15
2022-10-29T18:19:28.888Z,33.00
2022-10-29T18:21:57.221Z,33.35
2022-10-29T18:24:25.490Z,29.42
2022-10-29T18:26:56.685Z,35.40
2022-10-29T18:29:24.230Z,47.97
2022-10-29T18:31:52.335Z,55.30
2022-10-29T18:34:23.125Z,67.22
2022-10-29T18:36:52.871Z,73.75
2022-10-29T18:39:22.983Z,82.22
2022-10-29T18:41:52.202Z,88.88
2022-10-29T18:44:24.438Z,89.78
2022-10-29T18:46:53.374Z,87.85
2022-10-29T18:49:24.129Z,88.35
2022-10-29T18:51:55.783Z,92.00
2022-10-29T18:54:28.047Z,93.40
2022-10-29T18:56:56.702Z,90.90
2022-10-29T18:59:24.292Z,92.38
2022-10-29T19:01:52.186Z,95.30
2022-10-29T19:04:23.020Z,89.63
2022-10-29T19:06:53.051Z,90.95
2022-10-29T19:09:20.933Z,90.68
2022-10-29T19:11:59.424Z,92.60
2022-10-29T19:14:29.771Z,88.20
2022-10-29T19:17:00.662Z,80.65
2022-10-29T19:19:30.804Z,67.10
2022-10-29T19:22:00.492Z,77.85
2022-10-29T19:24:30.894Z,66.50
2022-10-29T19:27:02.400Z,57.30
2022-10-29T19:29:33.022Z,47.90
2022-10-29T19:32:01.334Z,43.35
2022-10-29T19:34:29.364Z,42.30
2022-10-29T19:36:57.325Z,39.60
2022-10-29T19:39:27.881Z,41.85
2022-10-29T19:41:55.337Z,44.17
2022-10-29T19:44:25.610Z,41.65
2022-10-29T19:46:59.858Z,40.67
2022-10-29T19:49:29.323Z,41.90
2022-10-29T19:51:59.780Z,40.15
2022-10-29T19:54:29.926Z,41.90
2022-10-29T19:56:57.347Z,48.55
2022-10-29T19:59:27.471Z,51.90
2022-10-29T20:01:59.191Z,50.90
2022-10-29T20:04:32.495Z,44.30
2022-10-29T20:07:02.929Z,43.67
2022-10-29T20:09:31.027Z,45.40
2022-10-29T20:11:58.414Z,45.67
2022-10-29T20:14:30.231Z,45.95
2022-10-29T20:16:59.630Z,47.63
2022-10-29T20:19:29.278Z,54.95
2022-10-29T20:21:59.288Z,56.72
2022-10-29T20:24:30.271Z,56.58
2022-10-29T20:27:02.352Z,48.75
2022-10-29T20:29:32.951Z,48.95
2022-10-29T20:32:00.382Z,52.30
2022-10-29T20:34:30.026Z,55.08
2022-10-29T20:37:01.944Z,54.60
2022-10-29T20:39:32.457Z,51.35
2022-10-29T20:42:00.705Z,53.88
2022-10-29T20:44:34.069Z,55.50
2022-10-29T20:47:05.677Z,57.25
2022-10-29T20:49:36.098Z,57.33
2022-10-29T20:52:05.895Z,52.85
2022-10-29T20:54:35.444Z,56.95
2022-10-29T20:57:03.482Z,53.45
2022-10-29T20:59:32.624Z,59.22
2022-10-29T21:02:03.269Z,57.03
2022-10-29T21:04:38.367Z,48.05
2022-10-29T21:07:10.362Z,48.05
2022-10-29T21:12:25.869Z,49.38
2022-10-29T21:14:57.956Z,46.90
2022-10-29T21:17:27.898Z,49.45
2022-10-29T21:19:58.971Z,48.45
2022-10-29T21:22:28.371Z,51.97
2022-10-29T21:24:59.732Z,51.53
2022-10-29T21:27:33.977Z,50.13
2022-10-29T21:30:04.393Z,48.95
2022-10-29T21:32:34.680Z,50.42
2022-10-29T21:35:05.001Z,50.00
2022-10-29T21:37:32.502Z,48.67
2022-10-29T21:40:06.702Z,47.95
2022-10-29T21:42:37.806Z,54.17
2022-10-29T21:45:08.273Z,63.67
2022-10-29T21:47:36.967Z,68.68
2022-10-29T21:50:09.058Z,65.82
2022-10-29T21:52:42.360Z,80.53
2022-10-29T21:55:09.514Z,71.10
2022-10-29T21:57:40.902Z,67.53
2022-10-29T22:00:12.794Z,82.75
2022-10-29T22:02:44.154Z,74.90
2022-10-29T22:05:11.547Z,65.80
2022-10-29T22:07:39.520Z,59.47
2022-10-29T22:10:09.518Z,60.50
2022-10-29T22:12:41.403Z,49.95
2022-10-29T22:17:57.586Z,45.95
2022-10-29T22:20:30.670Z,42.67
2022-10-29T22:22:58.670Z,44.67
2022-10-29T22:25:28.735Z,46.63
2022-10-29T22:27:57.688Z,44.97
2022-10-29T22:30:28.074Z,44.63
2022-10-29T22:32:59.509Z,41.42
2022-10-29T22:35:29.506Z,43.38
2022-10-29T22:38:01.088Z,43.78
2022-10-29T22:40:30.879Z,43.05
2022-10-29T22:43:01.104Z,43.90
2022-10-29T22:45:29.743Z,43.00
2022-10-29T22:48:00.937Z,47.45
2022-10-29T22:50:32.809Z,46.33
2022-10-29T22:53:02.615Z,46.80
2022-10-29T22:55:31.393Z,44.00
2022-10-29T22:57:59.432Z,42.80
2022-10-29T23:00:29.829Z,40.70
2022-10-29T23:03:02.179Z,41.92
2022-10-29T23:05:31.043Z,45.30
2022-10-29T23:07:59.998Z,42.22
2022-10-29T23:10:30.619Z,42.13
2022-10-29T23:13:01.335Z,40.47
2022-10-29T23:15:33.006Z,38.83
2022-10-29T23:18:04.102Z,41.05
2022-10-29T23:20:36.037Z,43.10
2022-10-29T23:23:03.547Z,42.78
2022-10-29T23:25:31.589Z,37.00
2022-10-29T23:28:04.480Z,36.08
2022-10-29T23:30:36.117Z,35.78
2022-10-29T23:33:03.656Z,36.50
2022-10-29T23:35:34.951Z,36.38
2022-10-29T23:38:06.286Z,38.15
2022-10-29T23:40:33.858Z,38.28
2022-10-29T23:43:01.615Z,37.33
2022-10-29T23:45:29.748Z,41.28
2022-10-29T23:47:58.548Z,40.45
2022-10-29T23:50:31.386Z,40.15
2022-10-29T23:52:58.841Z,40.25
2022-10-29T23:55:30.023Z,40.67
2022-10-29T23:58:00.956Z,51.20
